createdAt,value
2023-01-01T00:03:19.852Z,100.00
2023-01-01T00:08:22.525Z,100.00
2023-01-01T00:13:25.192Z,100.00
2023-01-01T00:18:27.886Z,100.00
2023-01-01T00:23:31.281Z,100.00
2023-01-01T00:28:33.979Z,100.00
2023-01-01T00:33:36.710Z,100.00
2023-01-01T00:38:39.729Z,100.00
2023-01-01T00:43:42.649Z,100.00
2023-01-01T00:48:45.384Z,100.00
2023-01-01T00:53:48.071Z,100.00
2023-01-01T00:59:00.749Z,100.00
2023-01-01T01:04:04.901Z,100.00
2023-01-01T01:09:07.678Z,100.00
2023-01-01T01:14:10.445Z,100.00
2023-01-01T01:19:18.864Z,100.00
2023-01-01T01:24:21.583Z,100.00
2023-01-01T01:29:24.364Z,100.00
2023-01-01T01:34:28.417Z,100.00
2023-01-01T01:39:31.397Z,100.00
2023-01-01T01:44:49.416Z,100.00
2023-01-01T01:50:01.477Z,100.00
2023-01-01T01:55:06.804Z,100.00
2023-01-01T02:00:11.422Z,100.00
2023-01-01T02:05:14.961Z,100.00
2023-01-01T02:10:17.709Z,100.00
2023-01-01T02:15:23.478Z,100.00
2023-01-01T02:20:42.032Z,100.00
2023-01-01T02:26:09.327Z,100.00
2023-01-01T02:31:22.770Z,100.00
2023-01-01T02:36:28.422Z,100.00
2023-01-01T02:41:36.451Z,100.00
2023-01-01T02:46:39.160Z,100.00
2023-01-01T02:51:44.875Z,100.00
2023-01-01T02:57:21.618Z,100.00
2023-01-01T03:02:37.957Z,100.00
2023-01-01T03:07:52.612Z,100.00
2023-01-01T03:13:07.037Z,100.00
2023-01-01T03:18:24.432Z,100.00
2023-01-01T03:23:35.921Z,100.00
2023-01-01T03:28:47.931Z,100.00
2023-01-01T03:33:58.806Z,100.00
2023-01-01T03:39:08.142Z,100.00
2023-01-01T03:44:10.839Z,100.00
2023-01-01T03:49:14.641Z,100.00
2023-01-01T03:54:42.029Z,100.00
2023-01-01T04:00:04.260Z,100.00
2023-01-01T04:05:10.941Z,100.00
2023-01-01T04:10:19.738Z,100.00
2023-01-01T04:15:25.438Z,100.00
2023-01-01T04:20:28.680Z,100.00
2023-01-01T04:25:31.904Z,100.00
2023-01-01T04:35:36.166Z,99.92
2023-01-01T04:40:39.073Z,99.53
2023-01-01T04:45:41.849Z,99.26
2023-01-01T04:50:44.521Z,99.34
2023-01-01T04:55:47.197Z,99.37
2023-01-01T05:00:51.376Z,99.69
2023-01-01T05:06:09.908Z,99.73
2023-01-01T05:11:21.299Z,99.38
2023-01-01T05:16:27.318Z,99.64
2023-01-01T05:21:33.027Z,99.54
2023-01-01T05:26:38.853Z,99.88
2023-01-01T05:31:41.655Z,99.95
2023-01-01T05:36:44.388Z,100.00
2023-01-01T05:41:47.100Z,100.00
2023-01-01T05:46:49.875Z,100.00
2023-01-01T05:51:52.663Z,100.00
2023-01-01T05:56:55.412Z,100.00
2023-01-01T06:01:58.254Z,100.00
2023-01-01T06:07:01.062Z,100.00
2023-01-01T06:12:03.962Z,100.00
2023-01-01T06:17:06.752Z,100.00
2023-01-01T06:22:09.631Z,100.00
2023-01-01T06:27:12.338Z,100.00
2023-01-01T06:32:15.042Z,100.00
2023-01-01T06:37:17.754Z,100.00
2023-01-01T06:42:20.459Z,100.00
2023-01-01T06:47:23.239Z,99.37
2023-01-01T06:52:25.922Z,98.65
2023-01-01T06:57:28.750Z,98.08
2023-01-01T07:02:31.618Z,97.23
2023-01-01T07:07:36.135Z,96.38
2023-01-01T07:12:38.939Z,96.24
2023-01-01T07:17:41.993Z,96.18
2023-01-01T07:22:44.609Z,96.26
2023-01-01T07:27:47.341Z,96.42
2023-01-01T07:32:55.508Z,96.47
2023-01-01T07:37:58.202Z,95.96
2023-01-01T07:43:00.944Z,94.89
2023-01-01T07:48:04.110Z,94.02
2023-01-01T07:53:07.017Z,93.59
2023-01-01T07:58:11.959Z,93.20
2023-01-01T08:03:16.270Z,91.77
2023-01-01T08:08:19.005Z,90.81
2023-01-01T08:13:21.706Z,89.87
2023-01-01T08:18:24.594Z,88.55
2023-01-01T08:23:27.265Z,87.34
2023-01-01T08:28:30.931Z,86.21
2023-01-01T08:33:33.715Z,85.58
2023-01-01T08:38:36.421Z,84.48
2023-01-01T08:43:39.124Z,84.03
2023-01-01T08:48:41.845Z,82.96
2023-01-01T08:53:50.641Z,82.94
2023-01-01T08:58:58.759Z,81.97
2023-01-01T09:04:04.633Z,80.92
2023-01-01T09:09:07.312Z,80.62
2023-01-01T09:14:10.070Z,80.16
2023-01-01T09:19:13.457Z,80.18
2023-01-01T09:24:16.172Z,80.77
2023-01-01T09:29:21.004Z,80.75
2023-01-01T09:34:24.631Z,80.82
2023-01-01T09:39:27.581Z,80.40
2023-01-01T09:44:37.884Z,80.76
2023-01-01T09:49:44.964Z,80.36
2023-01-01T09:54:57.266Z,79.86
2023-01-01T10:00:00.851Z,79.39
2023-01-01T10:05:23.537Z,79.25
2023-01-01T10:10:40.249Z,78.45
2023-01-01T10:15:57.083Z,78.65
2023-01-01T10:21:26.452Z,78.42
2023-01-01T10:26:33.610Z,78.15
2023-01-01T10:31:44.804Z,77.84
2023-01-01T10:36:47.559Z,78.16
2023-01-01T10:41:50.422Z,77.04
2023-01-01T10:46:56.588Z,76.92
2023-01-01T10:51:59.470Z,76.30
2023-01-01T10:57:14.646Z,75.92
2023-01-01T11:02:23.701Z,75.43
2023-01-01T11:07:33.797Z,74.97
2023-01-01T11:13:04.115Z,74.59
2023-01-01T11:18:06.422Z,73.86
2023-01-01T11:23:30.345Z,73.77
2023-01-01T11:28:35.217Z,73.78
2023-01-01T11:33:50.914Z,73.87
2023-01-01T11:39:16.747Z,73.65
2023-01-01T11:44:42.314Z,73.44
2023-01-01T11:49:45.193Z,73.41
2023-01-01T11:54:48.059Z,73.68
2023-01-01T12:00:00.880Z,73.16
2023-01-01T12:05:14.833Z,73.32
2023-01-01T12:10:26.590Z,73.73
2023-01-01T12:15:40.465Z,73.47
2023-01-01T12:20:50.056Z,74.03
2023-01-01T12:26:06.355Z,74.89
2023-01-01T12:31:33.864Z,75.44
2023-01-01T12:37:01.651Z,75.68
2023-01-01T12:42:23.057Z,76.27
2023-01-01T12:47:35.561Z,76.45
2023-01-01T12:53:07.598Z,77.05
2023-01-01T12:58:21.998Z,77.50
2023-01-01T13:03:33.454Z,77.94
2023-01-01T13:08:37.999Z,78.30
2023-01-01T13:13:40.728Z,78.59
2023-01-01T13:18:49.927Z,79.07
2023-01-01T13:23:54.434Z,79.53
2023-01-01T13:28:57.107Z,79.61
2023-01-01T13:34:18.889Z,79.93
2023-01-01T13:39:57.582Z,80.31
2023-01-01T13:45:00.719Z,80.89
2023-01-01T13:50:13.210Z,81.51
2023-01-01T13:55:39.785Z,81.83
2023-01-01T14:00:49.873Z,82.22
2023-01-01T14:06:00.192Z,82.31
2023-01-01T14:11:20.290Z,82.76
2023-01-01T14:16:26.830Z,83.14
2023-01-01T14:21:33.293Z,83.53
2023-01-01T14:26:38.838Z,83.96
2023-01-01T14:31:44.528Z,84.31
2023-01-01T14:36:52.594Z,84.61
2023-01-01T14:42:17.467Z,84.72
2023-01-01T14:47:27.211Z,84.82
2023-01-01T14:52:31.484Z,85.01
2023-01-01T14:57:37.435Z,84.82
2023-01-01T15:02:40.901Z,84.73
2023-01-01T15:07:43.838Z,85.06
2023-01-01T15:12:46.718Z,85.66
2023-01-01T15:17:49.438Z,86.60
2023-01-01T15:22:53.506Z,87.23
2023-01-01T15:27:56.345Z,87.93
2023-01-01T15:33:13.929Z,88.67
2023-01-01T15:38:24.009Z,89.25
2023-01-01T15:43:31.612Z,89.78
2023-01-01T15:48:37.532Z,90.47
2023-01-01T15:53:54.875Z,90.89
2023-01-01T15:59:09.094Z,91.66
2023-01-01T16:04:28.420Z,92.16
2023-01-01T16:09:35.977Z,92.49
2023-01-01T16:14:39.046Z,93.13
2023-01-01T16:19:42.243Z,93.18
2023-01-01T16:24:45.627Z,93.36
2023-01-01T16:29:54.467Z,93.57
2023-01-01T16:34:57.664Z,93.86
2023-01-01T16:40:00.393Z,94.12
2023-01-01T16:45:03.478Z,94.92
2023-01-01T16:50:06.221Z,95.00
2023-01-01T16:55:09.011Z,95.18
2023-01-01T17:00:12.445Z,95.39
2023-01-01T17:05:15.230Z,95.71
2023-01-01T17:10:17.981Z,95.96
2023-01-01T17:15:21.437Z,96.05
2023-01-01T17:20:25.740Z,96.30
2023-01-01T17:25:28.628Z,96.44
2023-01-01T17:30:31.344Z,96.83
2023-01-01T17:35:34.065Z,96.91
2023-01-01T17:40:37.307Z,97.30
2023-01-01T17:45:40.143Z,97.44
2023-01-01T17:50:45.053Z,97.71
2023-01-01T17:55:47.741Z,97.57
2023-01-01T18:00:51.390Z,97.86
2023-01-01T18:05:56.479Z,97.73
2023-01-01T18:10:59.675Z,97.78
2023-01-01T18:16:08.540Z,98.00
2023-01-01T18:21:14.631Z,98.08
2023-01-01T18:26:18.424Z,98.48
2023-01-01T18:31:23.164Z,99.10
2023-01-01T18:36:29.692Z,99.24
2023-01-01T18:41:44.638Z,98.95
2023-01-01T18:46:58.290Z,98.50
2023-01-01T18:52:24.154Z,98.46
2023-01-01T18:57:29.578Z,98.88
2023-01-01T19:03:11.902Z,99.23
2023-01-01T19:08:18.873Z,99.63
2023-01-01T19:13:32.002Z,99.92
2023-01-01T19:18:35.439Z,100.00
2023-01-01T19:23:47.767Z,100.00
2023-01-01T19:28:55.922Z,100.00
2023-01-01T19:33:58.651Z,100.00
2023-01-01T19:39:01.438Z,100.00
2023-01-01T19:44:09.821Z,100.00
2023-01-01T19:49:12.954Z,100.00
2023-01-01T19:54:15.671Z,100.00
2023-01-01T19:59:18.380Z,100.00
2023-01-01T20:04:21.142Z,100.00
2023-01-01T20:09:23.945Z,100.00
2023-01-01T20:14:26.643Z,100.00
2023-01-01T20:19:29.451Z,100.00
2023-01-01T20:24:32.140Z,100.00
2023-01-01T20:29:34.983Z,100.00
2023-01-01T20:34:38.206Z,100.00
2023-01-01T20:39:40.864Z,100.00
2023-01-01T20:44:44.141Z,100.00
2023-01-01T20:49:46.847Z,100.00
2023-01-01T20:54:49.590Z,100.00
2023-01-01T20:59:52.307Z,100.00
2023-01-01T21:04:55.012Z,100.00
2023-01-01T21:09:57.696Z,100.00
2023-01-01T21:15:01.921Z,100.00
2023-01-01T21:20:05.108Z,100.00
2023-01-01T21:25:49.984Z,100.00
2023-01-01T21:30:49.783Z,100.00
2023-01-01T21:35:52.621Z,100.00
2023-01-01T21:40:59.550Z,100.00
2023-01-01T21:46:05.402Z,100.00
2023-01-01T21:51:22.485Z,100.00
2023-01-01T21:56:35.303Z,100.00
2023-01-01T22:01:40.803Z,100.00
2023-01-01T22:06:46.624Z,100.00
2023-01-01T22:11:52.317Z,100.00
2023-01-01T22:16:58.459Z,100.00
2023-01-01T22:22:01.670Z,100.00
2023-01-01T22:27:13.566Z,100.00
2023-01-01T22:32:29.166Z,100.00
2023-01-01T22:37:37.574Z,100.00
2023-01-01T22:42:40.304Z,100.00
2023-01-01T22:47:47.061Z,100.00
2023-01-01T22:52:50.541Z,100.00
2023-01-01T22:57:53.254Z,100.00
2023-01-01T23:02:56.064Z,100.00
2023-01-01T23:07:59.208Z,100.00
2023-01-01T23:13:21.889Z,100.00
2023-01-01T23:18:24.585Z,100.00
2023-01-01T23:23:29.106Z,100.00
2023-01-01T23:28:32.527Z,100.00
2023-01-01T23:33:35.869Z,100.00
2023-01-01T23:38:40.005Z,100.00
2023-01-01T23:43:43.763Z,100.00
2023-01-01T23:48:48.260Z,100.00
2023-01-01T23:53:50.973Z,100.00
2023-01-01T23:58:53.746Z,100.00
